createdAt,value
2023-05-14T00:00:07.000Z,140
2023-05-14T00:01:23.000Z,139
2023-05-14T00:02:39.000Z,138
2023-05-14T00:03:56.000Z,140
2023-05-14T00:05:12.000Z,139
2023-05-14T00:06:28.000Z,140
2023-05-14T00:07:44.000Z,141
2023-05-14T00:10:17.000Z,138
2023-05-14T00:11:33.000Z,139
2023-05-14T00:12:49.000Z,138
2023-05-14T00:14:05.000Z,140
2023-05-14T00:15:22.000Z,140
2023-05-14T00:16:37.000Z,140
2023-05-14T00:17:53.000Z,138
2023-05-14T00:19:09.000Z,138
2023-05-14T00:20:26.000Z,141
2023-05-14T00:22:58.000Z,137
2023-05-14T00:24:13.000Z,139
2023-05-14T00:25:29.000Z,138
2023-05-14T00:26:45.000Z,139
2023-05-14T00:28:01.000Z,141
2023-05-14T00:29:17.000Z,140
2023-05-14T00:30:34.000Z,138
2023-05-14T00:31:50.000Z,138
2023-05-14T00:33:06.000Z,137
2023-05-14T00:35:39.000Z,137
2023-05-14T00:38:11.000Z,137
2023-05-14T00:39:26.000Z,137
2023-05-14T00:40:41.000Z,139
2023-05-14T00:41:58.000Z,140
2023-05-14T00:43:14.000Z,144
2023-05-14T00:44:30.000Z,143
2023-05-14T00:45:46.000Z,144
2023-05-14T00:48:19.000Z,142
2023-05-14T00:49:35.000Z,143
2023-05-14T00:50:51.000Z,141
2023-05-14T00:52:08.000Z,142
2023-05-14T00:53:24.000Z,144
2023-05-14T00:54:40.000Z,142
2023-05-14T00:55:56.000Z,140
2023-05-14T00:57:12.000Z,143
2023-05-14T00:58:28.000Z,139
2023-05-14T01:01:00.000Z,140
2023-05-14T01:02:16.000Z,140
2023-05-14T01:03:33.000Z,139
2023-05-14T01:04:49.000Z,138
2023-05-14T01:06:05.000Z,138
2023-05-14T01:07:21.000Z,137
2023-05-14T01:08:38.000Z,139
2023-05-14T01:09:54.000Z,140
2023-05-14T01:11:10.000Z,140
2023-05-14T01:13:43.000Z,143
2023-05-14T01:16:14.000Z,144
2023-05-14T01:17:30.000Z,143
2023-05-14T01:18:47.000Z,142
2023-05-14T01:20:03.000Z,139
2023-05-14T01:21:19.000Z,142
2023-05-14T01:22:35.000Z,140
2023-05-14T01:23:51.000Z,139
2023-05-14T01:26:24.000Z,136
2023-05-14T01:27:40.000Z,136
2023-05-14T01:28:56.000Z,134
2023-05-14T01:30:13.000Z,134
2023-05-14T01:31:28.000Z,135
2023-05-14T01:32:44.000Z,137
2023-05-14T01:34:00.000Z,134
2023-05-14T01:35:17.000Z,132
2023-05-14T01:36:33.000Z,136
2023-05-14T01:39:05.000Z,136
2023-05-14T01:40:22.000Z,134
2023-05-14T01:41:38.000Z,137
2023-05-14T01:42:54.000Z,141
2023-05-14T01:45:26.000Z,142
2023-05-14T01:46:43.000Z,144
2023-05-14T01:47:58.000Z,144
2023-05-14T01:49:14.000Z,144
2023-05-14T01:51:47.000Z,143
2023-05-14T01:53:03.000Z,145
2023-05-14T01:54:19.000Z,143
2023-05-14T01:55:35.000Z,145
2023-05-14T01:56:52.000Z,145
2023-05-14T01:58:08.000Z,145
2023-05-14T01:59:24.000Z,143
2023-05-14T02:00:40.000Z,144
2023-05-14T02:01:57.000Z,146
2023-05-14T02:04:29.000Z,145
2023-05-14T02:05:44.000Z,147
2023-05-14T02:07:00.000Z,147
2023-05-14T02:08:17.000Z,147
2023-05-14T02:09:33.000Z,147
2023-05-14T02:10:49.000Z,147
2023-05-14T02:12:05.000Z,146
2023-05-14T02:13:22.000Z,144
2023-05-14T02:14:38.000Z,145
2023-05-14T02:17:10.000Z,143
2023-05-14T02:19:43.000Z,144
2023-05-14T02:20:59.000Z,143
2023-05-14T02:22:14.000Z,142
2023-05-14T02:23:31.000Z,143
2023-05-14T02:24:47.000Z,140
2023-05-14T02:26:03.000Z,138
2023-05-14T02:27:19.000Z,138
2023-05-14T02:29:52.000Z,138
2023-05-14T02:31:08.000Z,137
2023-05-14T02:32:24.000Z,138
2023-05-14T02:33:40.000Z,137
2023-05-14T02:34:57.000Z,136
2023-05-14T02:36:13.000Z,136
2023-05-14T02:37:29.000Z,137
2023-05-14T02:38:44.000Z,135
2023-05-14T02:40:01.000Z,136
2023-05-14T02:42:33.000Z,136
2023-05-14T02:43:49.000Z,135
2023-05-14T02:45:06.000Z,135
2023-05-14T02:46:22.000Z,136
2023-05-14T02:47:38.000Z,135
2023-05-14T02:48:54.000Z,135
2023-05-14T02:50:10.000Z,135
2023-05-14T02:51:27.000Z,136
2023-05-14T02:52:43.000Z,137
2023-05-14T02:55:15.000Z,135
2023-05-14T02:57:47.000Z,137
2023-05-14T02:59:03.000Z,135
2023-05-14T03:00:19.000Z,136
2023-05-14T03:01:36.000Z,137
2023-05-14T03:02:52.000Z,136
2023-05-14T03:04:08.000Z,135
2023-05-14T03:05:24.000Z,136
2023-05-14T03:07:57.000Z,138
2023-05-14T03:09:13.000Z,137
2023-05-14T03:10:29.000Z,144
2023-05-14T03:11:45.000Z,145
2023-05-14T03:13:01.000Z,148
2023-05-14T03:14:17.000Z,149
2023-05-14T03:15:33.000Z,147
2023-05-14T03:16:49.000Z,152
2023-05-14T03:18:06.000Z,157
2023-05-14T03:19:22.000Z,162
2023-05-14T03:20:38.000Z,167
2023-05-14T03:23:11.000Z,184
2023-05-14T03:24:27.000Z,194
2023-05-14T03:25:43.000Z,202
2023-05-14T03:26:59.000Z,214
2023-05-14T03:28:16.000Z,221
2023-05-14T03:29:31.000Z,235
2023-05-14T03:30:47.000Z,247
2023-05-14T03:32:03.000Z,260
2023-05-14T03:33:19.000Z,271
2023-05-14T03:35:51.000Z,298
2023-05-14T03:37:06.000Z,313
2023-05-14T03:38:22.000Z,320
2023-05-14T03:39:39.000Z,347
2023-05-14T03:40:55.000Z,368
2023-05-14T03:42:11.000Z,388
2023-05-14T03:43:27.000Z,411
2023-05-14T03:46:00.000Z,463
2023-05-14T03:48:32.000Z,503
2023-05-14T03:49:49.000Z,530
2023-05-14T03:51:05.000Z,559
2023-05-14T03:52:21.000Z,581
2023-05-14T03:53:36.000Z,614
2023-05-14T03:54:53.000Z,647
2023-05-14T03:56:09.000Z,677
2023-05-14T03:57:25.000Z,701
2023-05-14T03:58:41.000Z,746
2023-05-14T04:01:14.000Z,819
2023-05-14T04:02:29.000Z,855
2023-05-14T04:03:45.000Z,898
2023-05-14T04:05:01.000Z,935
2023-05-14T04:06:18.000Z,980
2023-05-14T04:07:34.000Z,1045
2023-05-14T04:08:50.000Z,1088
2023-05-14T04:11:23.000Z,1195
2023-05-14T04:12:39.000Z,1269
2023-05-14T04:13:55.000Z,1336
2023-05-14T04:15:11.000Z,1418
2023-05-14T04:16:28.000Z,1466
2023-05-14T04:17:44.000Z,1523
2023-05-14T04:18:59.000Z,1563
2023-05-14T04:20:15.000Z,1615
2023-05-14T04:21:31.000Z,1652
2023-05-14T04:22:48.000Z,1700
2023-05-14T04:24:04.000Z,1728
2023-05-14T04:26:36.000Z,1769
2023-05-14T04:27:53.000Z,1788
2023-05-14T04:29:09.000Z,1823
2023-05-14T04:30:25.000Z,1824
2023-05-14T04:31:41.000Z,1861
2023-05-14T04:32:58.000Z,1886
2023-05-14T04:34:14.000Z,1931
2023-05-14T04:36:45.000Z,1949
2023-05-14T04:39:18.000Z,1942
2023-05-14T04:40:34.000Z,1936
2023-05-14T04:41:50.000Z,1937
2023-05-14T04:43:06.000Z,1945
2023-05-14T04:44:23.000Z,1954
2023-05-14T04:45:39.000Z,1955
2023-05-14T04:46:55.000Z,1959
2023-05-14T04:49:28.000Z,1929
2023-05-14T04:51:59.000Z,1895
2023-05-14T04:53:14.000Z,1882
2023-05-14T04:54:30.000Z,1870
2023-05-14T04:55:46.000Z,1854
2023-05-14T04:57:02.000Z,1839
2023-05-14T04:58:18.000Z,1858
2023-05-14T04:59:35.000Z,1905
2023-05-14T05:00:51.000Z,1943
2023-05-14T05:02:07.000Z,1952
2023-05-14T05:03:23.000Z,1956
2023-05-14T05:04:40.000Z,1969
2023-05-14T05:05:55.000Z,1996
2023-05-14T05:07:10.000Z,2024
2023-05-14T05:08:26.000Z,2049
2023-05-14T05:10:59.000Z,2099
2023-05-14T05:12:15.000Z,2149
2023-05-14T05:14:47.000Z,2280
2023-05-14T05:16:04.000Z,2357
2023-05-14T05:17:20.000Z,2449
2023-05-14T05:18:36.000Z,2519
2023-05-14T05:19:52.000Z,2573
2023-05-14T05:21:08.000Z,2650
2023-05-14T05:22:23.000Z,2710
2023-05-14T05:23:39.000Z,2844
2023-05-14T05:24:55.000Z,3036
2023-05-14T05:26:12.000Z,3116
2023-05-14T05:27:28.000Z,3177
2023-05-14T05:28:44.000Z,3283
2023-05-14T05:30:00.000Z,3328
2023-05-14T05:31:17.000Z,3360
2023-05-14T05:32:33.000Z,3440
2023-05-14T05:33:48.000Z,3566
2023-05-14T05:35:03.000Z,3670
2023-05-14T05:36:19.000Z,3677
2023-05-14T05:37:36.000Z,3617
2023-05-14T05:38:52.000Z,3593
2023-05-14T05:40:08.000Z,3594
2023-05-14T05:41:24.000Z,3594
2023-05-14T05:42:41.000Z,3588
2023-05-14T05:43:57.000Z,3583
2023-05-14T05:45:13.000Z,3592
2023-05-14T05:46:28.000Z,3607
2023-05-14T05:47:44.000Z,3594
2023-05-14T05:49:00.000Z,3538
2023-05-14T05:50:16.000Z,3468
2023-05-14T05:51:32.000Z,3433
2023-05-14T05:52:49.000Z,3418
2023-05-14T05:54:05.000Z,3412
2023-05-14T05:55:21.000Z,3410
2023-05-14T05:56:37.000Z,3414
2023-05-14T05:57:54.000Z,3404
2023-05-14T05:59:10.000Z,3385
2023-05-14T06:00:26.000Z,3397
2023-05-14T06:01:42.000Z,3417
2023-05-14T06:02:58.000Z,3419
2023-05-14T06:04:14.000Z,3417
2023-05-14T06:05:30.000Z,3425
2023-05-14T06:06:46.670Z,3430
2023-05-14T06:08:02.000Z,3446
2023-05-14T06:09:19.000Z,3451
2023-05-14T06:10:35.000Z,3459
2023-05-14T06:11:51.000Z,3472
2023-05-14T06:13:07.000Z,3471
2023-05-14T06:14:24.000Z,3468
2023-05-14T06:15:40.000Z,3458
2023-05-14T06:16:56.000Z,3445
2023-05-14T06:18:12.000Z,3426
2023-05-14T06:19:29.000Z,3422
2023-05-14T06:20:44.000Z,3434
2023-05-14T06:22:00.000Z,3446
2023-05-14T06:23:16.000Z,3472
2023-05-14T06:24:32.000Z,3503
2023-05-14T06:25:49.000Z,3523
2023-05-14T06:27:05.000Z,3532
2023-05-14T06:28:21.000Z,3545
2023-05-14T06:30:54.000Z,3573
2023-05-14T06:32:10.000Z,3589
2023-05-14T06:33:26.000Z,3606
2023-05-14T06:34:42.000Z,3626
2023-05-14T06:35:59.000Z,3646
2023-05-14T06:37:14.000Z,3662
2023-05-14T06:38:30.000Z,3678
2023-05-14T06:39:46.000Z,3696
2023-05-14T06:41:03.000Z,3682
2023-05-14T06:42:19.000Z,3637
2023-05-14T06:43:35.000Z,3772
2023-05-14T06:44:51.000Z,3797
2023-05-14T06:46:07.000Z,3825
2023-05-14T06:47:24.000Z,3857
2023-05-14T06:48:40.000Z,3886
2023-05-14T06:49:56.000Z,3928
2023-05-14T06:51:12.000Z,3967
2023-05-14T06:52:29.000Z,4015
2023-05-14T06:53:44.000Z,4072
2023-05-14T06:55:00.000Z,4138
2023-05-14T06:56:16.000Z,4215
2023-05-14T06:57:33.000Z,4289
2023-05-14T06:58:49.000Z,4369
2023-05-14T07:00:05.000Z,4462
2023-05-14T07:01:21.000Z,4555
2023-05-14T07:02:38.000Z,4655
2023-05-14T07:03:54.000Z,4756
2023-05-14T07:05:10.000Z,4857
2023-05-14T07:06:26.000Z,4948
2023-05-14T07:07:42.000Z,5024
2023-05-14T07:08:59.000Z,5086
2023-05-14T07:10:14.000Z,5139
2023-05-14T07:11:30.000Z,5174
2023-05-14T07:12:46.000Z,5209
2023-05-14T07:14:03.000Z,5243
2023-05-14T07:15:19.000Z,5266
2023-05-14T07:16:35.000Z,5278
2023-05-14T07:17:51.000Z,5290
2023-05-14T07:19:08.000Z,5299
2023-05-14T07:21:40.000Z,5292
2023-05-14T07:22:56.000Z,5257
2023-05-14T07:24:12.000Z,5204
2023-05-14T07:25:29.000Z,5154
2023-05-14T07:26:44.000Z,5094
2023-05-14T07:28:00.000Z,5046
2023-05-14T07:29:16.000Z,4987
2023-05-14T07:30:33.000Z,4899
2023-05-14T07:31:49.000Z,4836
2023-05-14T07:33:05.000Z,4767
2023-05-14T07:34:21.000Z,4734
2023-05-14T07:35:38.000Z,4774
2023-05-14T07:36:54.000Z,4794
2023-05-14T07:38:10.000Z,4773
2023-05-14T07:39:26.000Z,4717
2023-05-14T07:40:43.000Z,4680
2023-05-14T07:41:59.000Z,4647
2023-05-14T07:43:14.000Z,4602
2023-05-14T07:44:30.000Z,4567
2023-05-14T07:45:47.000Z,4571
2023-05-14T07:47:03.000Z,4574
2023-05-14T07:48:19.000Z,4566
2023-05-14T07:49:35.000Z,4567
2023-05-14T07:50:51.000Z,4575
2023-05-14T07:52:08.000Z,4598
2023-05-14T07:53:24.000Z,4631
2023-05-14T07:54:40.000Z,4657
2023-05-14T07:55:56.000Z,4677
2023-05-14T07:57:13.000Z,4704
2023-05-14T07:58:29.000Z,4727
2023-05-14T08:01:00.000Z,4743
2023-05-14T08:02:17.000Z,4745
2023-05-14T08:03:33.000Z,4737
2023-05-14T08:04:49.000Z,4718
2023-05-14T08:06:05.000Z,4716
2023-05-14T08:07:21.000Z,4708
2023-05-14T08:08:38.000Z,4716
2023-05-14T08:09:54.000Z,4744
2023-05-14T08:11:10.000Z,4752
2023-05-14T08:12:26.000Z,4752
2023-05-14T08:13:43.000Z,4760
2023-05-14T08:14:59.000Z,4794
2023-05-14T08:16:14.000Z,4850
2023-05-14T08:17:29.000Z,4892
2023-05-14T08:18:46.000Z,4928
2023-05-14T08:20:02.000Z,4950
2023-05-14T08:21:18.000Z,4942
2023-05-14T08:22:34.000Z,4881
2023-05-14T08:23:51.000Z,4820
2023-05-14T08:25:07.000Z,4769
2023-05-14T08:26:23.000Z,4748
2023-05-14T08:27:39.000Z,4761
2023-05-14T08:28:55.000Z,4796
2023-05-14T08:30:10.000Z,4866
2023-05-14T08:31:25.000Z,4942
2023-05-14T08:32:41.000Z,5022
2023-05-14T08:33:58.000Z,5118
2023-05-14T08:35:14.000Z,5205
2023-05-14T08:36:30.000Z,5293
2023-05-14T08:37:46.000Z,5405
2023-05-14T08:39:02.000Z,5530
2023-05-14T08:40:19.000Z,5654
2023-05-14T08:41:35.000Z,5763
2023-05-14T08:42:51.000Z,5838
2023-05-14T08:44:07.000Z,5854
2023-05-14T08:45:24.000Z,5836
2023-05-14T08:46:40.000Z,5776
2023-05-14T08:47:55.000Z,5698
2023-05-14T08:49:11.000Z,5603
2023-05-14T08:50:28.000Z,5565
2023-05-14T08:51:44.000Z,5560
2023-05-14T08:53:00.000Z,5526
2023-05-14T08:54:16.000Z,5513
2023-05-14T08:55:32.000Z,5534
2023-05-14T08:56:49.000Z,5537
2023-05-14T08:58:05.000Z,5467
2023-05-14T08:59:21.000Z,5341
2023-05-14T09:00:37.000Z,5221
2023-05-14T09:01:54.000Z,5139
2023-05-14T09:03:10.000Z,5083
2023-05-14T09:04:25.000Z,5068
2023-05-14T09:05:41.000Z,5014
2023-05-14T09:06:58.000Z,4922
2023-05-14T09:08:14.000Z,4817
2023-05-14T09:09:30.000Z,4677
2023-05-14T09:10:46.000Z,4597
2023-05-14T09:12:03.000Z,4554
2023-05-14T09:13:19.000Z,4551
2023-05-14T09:15:51.000Z,4654
2023-05-14T09:17:07.000Z,4758
2023-05-14T09:18:24.000Z,4770
2023-05-14T09:19:40.000Z,4763
2023-05-14T09:20:55.000Z,4794
2023-05-14T09:22:11.000Z,4800
2023-05-14T09:23:28.000Z,4823
2023-05-14T09:24:44.000Z,4863
2023-05-14T09:26:00.000Z,4906
2023-05-14T09:27:16.000Z,4936
2023-05-14T09:28:33.000Z,4987
2023-05-14T09:29:49.000Z,5083
2023-05-14T09:31:05.000Z,5181
2023-05-14T09:32:21.000Z,5262
2023-05-14T09:33:38.000Z,5278
2023-05-14T09:34:54.000Z,5116
2023-05-14T09:36:10.000Z,4899
2023-05-14T09:37:25.000Z,4877
2023-05-14T09:39:58.000Z,5074
2023-05-14T09:41:14.000Z,5054
2023-05-14T09:42:30.000Z,5045
2023-05-14T09:43:46.000Z,5045
2023-05-14T09:45:03.000Z,5053
2023-05-14T09:46:19.000Z,5075
2023-05-14T09:47:35.000Z,5095
2023-05-14T09:48:51.000Z,5113
2023-05-14T09:50:08.000Z,5140
2023-05-14T09:51:24.000Z,5167
2023-05-14T09:52:40.000Z,5155
2023-05-14T09:53:56.000Z,5135
2023-05-14T09:55:13.000Z,5104
2023-05-14T09:56:28.000Z,5056
2023-05-14T09:57:44.000Z,5003
2023-05-14T09:59:00.000Z,4951
2023-05-14T10:01:33.000Z,4894
2023-05-14T10:02:49.000Z,4880
2023-05-14T10:04:05.000Z,4880
2023-05-14T10:06:38.000Z,4895
2023-05-14T10:07:54.000Z,4898
2023-05-14T10:09:10.000Z,4906
2023-05-14T10:10:26.000Z,4927
2023-05-14T10:11:43.000Z,4977
2023-05-14T10:12:58.000Z,4991
2023-05-14T10:14:14.000Z,4963
2023-05-14T10:15:30.000Z,4953
2023-05-14T10:16:47.000Z,4957
2023-05-14T10:19:19.000Z,4998
2023-05-14T10:20:34.000Z,5018
2023-05-14T10:21:50.000Z,5041
2023-05-14T10:23:06.000Z,5069
2023-05-14T10:24:22.000Z,5108
2023-05-14T10:25:38.000Z,5156
2023-05-14T10:26:54.000Z,5207
2023-05-14T10:28:11.000Z,5236
2023-05-14T10:29:27.000Z,5262
2023-05-14T10:30:43.000Z,5308
2023-05-14T10:31:59.000Z,5363
2023-05-14T10:33:15.000Z,5425
2023-05-14T10:34:31.000Z,5481
2023-05-14T10:35:46.000Z,5304
2023-05-14T10:37:02.000Z,5067
2023-05-14T10:38:19.000Z,5199
2023-05-14T10:39:35.000Z,5523
2023-05-14T10:40:51.000Z,5730
2023-05-14T10:42:07.000Z,5861
2023-05-14T10:43:24.000Z,6045
2023-05-14T10:44:40.000Z,6199
2023-05-14T10:45:56.000Z,6352
2023-05-14T10:47:12.000Z,6543
2023-05-14T10:48:28.000Z,6801
2023-05-14T10:49:45.000Z,6971
2023-05-14T10:52:17.000Z,7201
2023-05-14T10:53:32.000Z,7357
2023-05-14T10:54:49.000Z,7363
2023-05-14T10:56:05.000Z,7355
2023-05-14T10:57:21.000Z,7516
2023-05-14T10:58:37.000Z,7766
2023-05-14T10:59:54.000Z,8003
2023-05-14T11:01:10.000Z,8203
2023-05-14T11:02:26.000Z,8363
2023-05-14T11:03:42.000Z,8487
2023-05-14T11:04:59.000Z,8724
2023-05-14T11:06:15.000Z,9174
2023-05-14T11:07:31.000Z,9048
2023-05-14T11:10:03.000Z,8932
2023-05-14T11:11:19.000Z,8892
2023-05-14T11:12:35.000Z,9582
2023-05-14T11:13:51.000Z,9463
2023-05-14T11:15:07.000Z,10708
2023-05-14T11:16:24.000Z,10686
2023-05-14T11:18:56.000Z,10752
2023-05-14T11:20:12.000Z,10875
2023-05-14T11:21:29.000Z,10764
2023-05-14T11:22:45.000Z,10658
2023-05-14T11:24:01.000Z,11509
2023-05-14T11:25:17.000Z,11711
2023-05-14T11:26:34.000Z,11846
2023-05-14T11:27:49.000Z,11938
2023-05-14T11:29:05.000Z,12056
2023-05-14T11:30:21.000Z,12462
2023-05-14T11:31:37.000Z,11741
2023-05-14T11:32:54.000Z,11961
2023-05-14T11:34:10.000Z,11770
2023-05-14T11:35:26.000Z,10985
2023-05-14T11:36:42.000Z,10713
2023-05-14T11:37:59.000Z,11516
2023-05-14T11:39:15.000Z,11865
2023-05-14T11:40:31.000Z,11418
2023-05-14T11:41:47.000Z,11582
2023-05-14T11:43:04.000Z,12008
2023-05-14T11:44:19.000Z,11229
2023-05-14T11:45:35.000Z,10481
2023-05-14T11:48:08.000Z,9472
2023-05-14T11:49:24.000Z,9730
2023-05-14T11:50:40.000Z,9648
2023-05-14T11:51:56.000Z,10285
2023-05-14T11:53:12.000Z,10577
2023-05-14T11:54:29.000Z,10870
2023-05-14T11:55:45.000Z,10759
2023-05-14T11:57:01.000Z,10469
2023-05-14T11:58:17.000Z,10596
2023-05-14T12:00:50.000Z,11688
2023-05-14T12:02:05.000Z,11293
2023-05-14T12:03:21.000Z,12177
2023-05-14T12:04:38.000Z,12534
2023-05-14T12:05:54.000Z,12855
2023-05-14T12:08:26.000Z,12972
2023-05-14T12:09:42.000Z,12964
2023-05-14T12:10:57.000Z,12726
2023-05-14T12:13:29.000Z,12469
2023-05-14T12:14:45.000Z,12733
2023-05-14T12:16:02.000Z,12756
2023-05-14T12:17:18.000Z,12995
2023-05-14T12:18:34.000Z,13359
2023-05-14T12:19:50.000Z,13445
2023-05-14T12:21:07.000Z,13623
2023-05-14T12:22:23.000Z,13657
2023-05-14T12:23:39.000Z,13719
2023-05-14T12:26:12.000Z,15001
2023-05-14T12:27:27.000Z,15579
2023-05-14T12:28:42.000Z,15466
2023-05-14T12:29:58.000Z,15798
2023-05-14T12:31:15.000Z,15695
2023-05-14T12:32:30.000Z,15968
2023-05-14T12:35:02.000Z,15738
2023-05-14T12:36:19.000Z,16166
2023-05-14T12:38:51.000Z,16486
2023-05-14T12:40:07.000Z,16684
2023-05-14T12:41:23.000Z,16784
2023-05-14T12:42:40.000Z,16715
2023-05-14T12:43:56.000Z,16286
2023-05-14T12:45:12.000Z,16365
2023-05-14T12:46:28.000Z,16112
2023-05-14T12:47:45.000Z,16139
2023-05-14T12:49:00.000Z,15900
2023-05-14T12:51:32.000Z,16423
2023-05-14T12:52:49.000Z,15836
2023-05-14T12:54:05.000Z,15320
2023-05-14T12:55:21.000Z,15245
2023-05-14T12:56:37.000Z,14859
2023-05-14T12:57:54.000Z,14937
2023-05-14T12:59:10.000Z,15117
2023-05-14T13:00:26.000Z,15537
2023-05-14T13:01:42.000Z,16136
2023-05-14T13:02:58.000Z,16296
2023-05-14T13:04:15.000Z,15543
2023-05-14T13:05:30.000Z,14287
2023-05-14T13:06:45.000Z,15566
2023-05-14T13:08:01.000Z,15168
2023-05-14T13:09:18.000Z,14962
2023-05-14T13:10:34.000Z,14919
2023-05-14T13:11:50.000Z,16032
2023-05-14T13:13:06.000Z,19011
2023-05-14T13:14:23.000Z,16728
2023-05-14T13:16:55.000Z,14207
2023-05-14T13:18:11.000Z,13082
2023-05-14T13:19:28.000Z,12018
2023-05-14T13:20:44.000Z,11503
2023-05-14T13:22:00.000Z,11235
2023-05-14T13:23:15.000Z,11323
2023-05-14T13:24:32.000Z,11364
2023-05-14T13:25:48.000Z,11190
2023-05-14T13:27:04.000Z,11161
2023-05-14T13:29:36.000Z,11392
2023-05-14T13:30:52.000Z,11212
2023-05-14T13:32:07.000Z,11660
2023-05-14T13:33:23.000Z,11189
2023-05-14T13:34:39.000Z,11205
2023-05-14T13:35:56.000Z,10686
2023-05-14T13:37:12.000Z,10004
2023-05-14T13:38:28.000Z,9133
2023-05-14T13:39:44.000Z,8364
2023-05-14T13:42:17.000Z,7004
2023-05-14T13:43:33.000Z,6707
2023-05-14T13:44:49.000Z,7543
2023-05-14T13:46:06.000Z,7064
2023-05-14T13:47:22.000Z,7027
2023-05-14T13:48:37.000Z,7191
2023-05-14T13:49:53.000Z,7418
2023-05-14T13:51:09.000Z,7555
2023-05-14T13:52:26.000Z,7972
2023-05-14T13:54:58.000Z,9404
2023-05-14T13:56:14.000Z,9588
2023-05-14T13:57:31.000Z,9584
2023-05-14T13:58:47.000Z,9527
2023-05-14T14:00:03.000Z,9953
2023-05-14T14:01:19.000Z,9274
2023-05-14T14:02:36.000Z,5955
2023-05-14T14:03:52.000Z,81267
2023-05-14T14:05:07.000Z,79725
2023-05-14T14:07:40.000Z,80787
2023-05-14T14:08:56.000Z,81163
2023-05-14T14:10:12.000Z,82087
2023-05-14T14:11:28.000Z,80806
2023-05-14T14:12:44.000Z,80572
2023-05-14T14:14:01.000Z,82374
2023-05-14T14:15:17.000Z,81732
2023-05-14T14:16:33.000Z,82432
2023-05-14T14:17:49.000Z,79773
2023-05-14T14:19:06.000Z,79950
2023-05-14T14:20:22.000Z,82209
2023-05-14T14:21:37.000Z,79021
2023-05-14T14:22:53.000Z,76200
2023-05-14T14:24:09.000Z,75807
2023-05-14T14:25:25.000Z,78026
2023-05-14T14:26:41.000Z,78707
2023-05-14T14:27:57.000Z,82256
2023-05-14T14:29:14.000Z,81709
2023-05-14T14:30:30.000Z,82175
2023-05-14T14:33:02.000Z,80888
2023-05-14T14:34:19.000Z,77481
2023-05-14T14:35:35.000Z,81680
2023-05-14T14:36:51.000Z,79912
2023-05-14T14:38:07.000Z,82568
2023-05-14T14:39:23.000Z,77919
2023-05-14T14:40:39.000Z,80894
2023-05-14T14:41:55.000Z,80511
2023-05-14T14:43:11.000Z,62607
2023-05-14T14:44:27.000Z,17285
2023-05-14T14:45:44.000Z,16218
2023-05-14T14:47:00.000Z,15350
2023-05-14T14:48:15.000Z,10403
2023-05-14T14:49:30.000Z,7376
2023-05-14T14:50:47.000Z,67396
2023-05-14T14:52:03.000Z,23041
2023-05-14T14:53:19.000Z,14812
2023-05-14T14:54:35.000Z,13576
2023-05-14T14:55:52.000Z,13089
2023-05-14T14:57:08.000Z,13217
2023-05-14T14:58:24.000Z,6368
2023-05-14T14:59:40.000Z,22179
2023-05-14T15:00:56.000Z,13945
2023-05-14T15:02:13.000Z,13893
2023-05-14T15:03:29.000Z,13449
2023-05-14T15:04:45.000Z,13303
2023-05-14T15:06:00.000Z,13233
2023-05-14T15:07:17.000Z,13337
2023-05-14T15:08:33.000Z,13427
2023-05-14T15:11:05.000Z,13447
2023-05-14T15:12:22.000Z,13614
2023-05-14T15:13:38.000Z,13825
2023-05-14T15:14:54.000Z,14077
2023-05-14T15:16:10.000Z,14223
2023-05-14T15:17:27.000Z,14319
2023-05-14T15:18:43.000Z,14517
2023-05-14T15:19:59.000Z,14564
2023-05-14T15:21:15.000Z,14313
2023-05-14T15:23:47.000Z,18519
2023-05-14T15:25:03.000Z,19571
2023-05-14T15:26:19.000Z,20272
2023-05-14T15:27:35.000Z,18885
2023-05-14T15:28:52.000Z,19164
2023-05-14T15:30:08.000Z,19884
2023-05-14T15:31:24.000Z,20863
2023-05-14T15:32:40.000Z,21609
2023-05-14T15:33:57.000Z,20491
2023-05-14T15:35:13.000Z,21165
2023-05-14T15:36:29.000Z,19344
2023-05-14T15:37:45.000Z,17514
2023-05-14T15:39:01.000Z,14672
2023-05-14T15:40:17.000Z,10354
2023-05-14T15:41:33.000Z,12794
2023-05-14T15:42:49.000Z,6843
2023-05-14T15:44:05.000Z,5726
2023-05-14T15:45:22.000Z,5184
2023-05-14T15:46:38.000Z,4718
2023-05-14T15:47:54.000Z,4549
2023-05-14T15:49:10.000Z,4418
2023-05-14T15:50:27.000Z,4267
2023-05-14T15:51:43.000Z,4174
2023-05-14T15:52:59.000Z,4069
2023-05-14T15:54:15.000Z,4116
2023-05-14T15:55:31.000Z,3977
2023-05-14T15:56:47.000Z,4024
2023-05-14T15:58:02.000Z,3957
2023-05-14T15:59:17.000Z,3883
2023-05-14T16:00:34.000Z,3849
2023-05-14T16:01:50.000Z,3840
2023-05-14T16:03:06.000Z,3866
2023-05-14T16:04:22.000Z,3968
2023-05-14T16:05:39.000Z,4068
2023-05-14T16:06:55.000Z,4112
2023-05-14T16:08:11.000Z,4148
2023-05-14T16:09:27.000Z,4309
2023-05-14T16:10:43.000Z,4355
2023-05-14T16:12:00.000Z,4578
2023-05-14T16:13:16.000Z,4920
2023-05-14T16:14:32.000Z,5344
2023-05-14T16:15:47.000Z,5726
2023-05-14T16:17:04.000Z,6069
2023-05-14T16:18:20.000Z,6321
2023-05-14T16:19:36.000Z,6516
2023-05-14T16:20:52.000Z,6628
2023-05-14T16:22:09.000Z,6549
2023-05-14T16:23:24.000Z,6071
2023-05-14T16:24:39.000Z,8046
2023-05-14T16:25:54.000Z,8296
2023-05-14T16:27:11.000Z,5328
2023-05-14T16:28:27.000Z,6396
2023-05-14T16:29:43.000Z,6198
2023-05-14T16:30:59.000Z,3697
2023-05-14T16:32:16.000Z,7256
2023-05-14T16:33:32.000Z,4585
2023-05-14T16:34:48.000Z,4642
2023-05-14T16:36:04.000Z,4073
2023-05-14T16:37:20.000Z,3521
2023-05-14T16:39:53.000Z,2930
2023-05-14T16:41:09.000Z,2604
2023-05-14T16:42:24.000Z,3189
2023-05-14T16:43:41.000Z,3399
2023-05-14T16:44:57.000Z,2874
2023-05-14T16:46:13.000Z,2831
2023-05-14T16:47:28.000Z,2803
2023-05-14T16:48:45.000Z,2810
2023-05-14T16:50:01.000Z,2628
2023-05-14T16:51:17.000Z,1904
2023-05-14T16:52:33.000Z,3739
2023-05-14T16:53:50.000Z,2537
2023-05-14T16:55:06.000Z,2462
2023-05-14T16:56:22.000Z,2493
2023-05-14T16:57:38.000Z,2686
2023-05-14T16:58:54.000Z,2677
2023-05-14T17:00:11.000Z,2709
2023-05-14T17:01:27.000Z,2815
2023-05-14T17:02:43.000Z,2846
2023-05-14T17:03:58.000Z,3015
2023-05-14T17:05:15.000Z,3088
2023-05-14T17:06:31.000Z,3310
2023-05-14T17:07:47.000Z,3452
2023-05-14T17:09:03.000Z,3672
2023-05-14T17:10:20.000Z,3777
2023-05-14T17:11:36.000Z,3792
2023-05-14T17:12:52.000Z,3270
2023-05-14T17:14:08.000Z,3943
2023-05-14T17:15:24.000Z,5860
2023-05-14T17:16:39.000Z,6880
2023-05-14T17:17:55.000Z,5075
2023-05-14T17:19:11.000Z,4968
2023-05-14T17:20:28.000Z,5041
2023-05-14T17:21:44.000Z,4951
2023-05-14T17:23:00.000Z,4799
2023-05-14T17:24:16.000Z,4627
2023-05-14T17:25:32.000Z,4544
2023-05-14T17:26:49.000Z,4561
2023-05-14T17:28:05.000Z,4616
2023-05-14T17:29:21.000Z,4652
2023-05-14T17:30:37.000Z,4668
2023-05-14T17:31:54.000Z,4568
2023-05-14T17:33:09.000Z,4494
2023-05-14T17:34:25.000Z,4521
2023-05-14T17:35:41.000Z,4656
2023-05-14T17:36:58.000Z,4776
2023-05-14T17:38:14.000Z,4865
2023-05-14T17:39:30.000Z,5082
2023-05-14T17:40:46.000Z,5062
2023-05-14T17:42:03.000Z,5181
2023-05-14T17:43:19.000Z,4478
2023-05-14T17:44:35.000Z,6032
2023-05-14T17:45:51.000Z,5272
2023-05-14T17:47:07.000Z,6071
2023-05-14T17:48:24.000Z,5710
2023-05-14T17:49:39.000Z,5419
2023-05-14T17:50:55.000Z,5420
2023-05-14T17:52:11.000Z,5259
2023-05-14T17:53:28.000Z,5076
2023-05-14T17:54:44.000Z,4930
2023-05-14T17:56:00.000Z,4783
2023-05-14T17:57:16.000Z,4654
2023-05-14T17:58:33.000Z,4611
2023-05-14T17:59:49.000Z,4474
2023-05-14T18:01:05.000Z,4303
2023-05-14T18:02:21.000Z,4209
2023-05-14T18:03:38.000Z,4109
2023-05-14T18:04:54.000Z,4040
2023-05-14T18:06:09.000Z,3902
2023-05-14T18:07:25.000Z,3747
2023-05-14T18:08:41.000Z,3578
2023-05-14T18:09:58.000Z,3435